createdAt,value
2019-03-03T00:02:18.421Z,9.83
2019-03-03T00:04:49.373Z,9.00
2019-03-03T00:07:20.279Z,11.73
2019-03-03T00:09:51.204Z,10.00
2019-03-03T00:12:22.110Z,8.03
2019-03-03T00:14:53.037Z,9.23
2019-03-03T00:17:23.939Z,7.77
2019-03-03T00:19:54.905Z,10.07
2019-03-03T00:22:25.813Z,8.10
2019-03-03T00:24:56.742Z,8.97
2019-03-03T00:27:29.265Z,7.77
2019-03-03T00:30:00.262Z,8.43
2019-03-03T00:32:31.149Z,7.80
2019-03-03T00:35:02.879Z,7.67
2019-03-03T00:37:47.349Z,7.00
2019-03-03T00:40:22.619Z,7.93
2019-03-03T00:42:55.155Z,8.00
2019-03-03T00:45:33.554Z,6.90
2019-03-03T00:48:23.661Z,7.60
2019-03-03T00:50:56.243Z,7.07
2019-03-03T00:53:34.695Z,6.73
2019-03-03T00:56:10.365Z,7.97
2019-03-03T00:58:45.802Z,7.40
2019-03-03T01:01:21.304Z,7.70
2019-03-03T01:03:53.845Z,8.00
2019-03-03T01:06:32.581Z,7.30
2019-03-03T01:09:06.555Z,7.33
2019-03-03T01:11:45.179Z,6.47
2019-03-03T01:14:20.390Z,7.47
2019-03-03T01:16:52.991Z,7.33
2019-03-03T01:19:25.491Z,6.90
2019-03-03T01:22:05.765Z,7.13
2019-03-03T01:24:44.275Z,9.60
2019-03-03T01:27:15.191Z,7.53
2019-03-03T01:29:46.092Z,7.87
2019-03-03T01:32:17.011Z,7.50
2019-03-03T01:34:47.899Z,7.67
2019-03-03T01:37:18.840Z,7.73
2019-03-03T01:39:49.805Z,7.53
2019-03-03T01:42:20.728Z,8.13
2019-03-03T01:44:51.622Z,7.73
2019-03-03T01:47:22.534Z,8.40
2019-03-03T01:49:53.429Z,7.87
2019-03-03T01:52:24.445Z,7.97
2019-03-03T01:54:55.411Z,7.73
2019-03-03T01:57:26.328Z,8.57
2019-03-03T01:59:57.287Z,9.50
2019-03-03T02:02:28.213Z,8.90
2019-03-03T02:04:59.024Z,8.10
2019-03-03T02:07:29.954Z,8.47
2019-03-03T02:10:00.850Z,8.17
2019-03-03T02:12:31.776Z,7.53
2019-03-03T02:15:02.681Z,8.00
2019-03-03T02:17:33.586Z,9.50
2019-03-03T02:20:06.485Z,8.40
2019-03-03T02:22:39.098Z,9.27
2019-03-03T02:25:12.344Z,7.57
2019-03-03T02:27:43.271Z,8.70
2019-03-03T02:30:21.353Z,8.27
2019-03-03T02:32:52.277Z,8.23
2019-03-03T02:35:23.173Z,8.77
2019-03-03T02:37:54.133Z,9.37
2019-03-03T02:40:25.036Z,8.90
2019-03-03T02:42:55.962Z,9.37
2019-03-03T02:45:26.858Z,8.17
2019-03-03T02:47:57.789Z,8.67
2019-03-03T02:50:28.707Z,8.77
2019-03-03T02:52:59.649Z,8.13
2019-03-03T02:55:30.545Z,8.43
2019-03-03T02:58:01.477Z,8.43
2019-03-03T03:00:32.437Z,8.93
2019-03-03T03:03:05.001Z,8.67
2019-03-03T03:05:37.527Z,9.10
2019-03-03T03:08:15.956Z,8.30
2019-03-03T03:10:51.451Z,8.93
2019-03-03T03:13:36.046Z,8.80
2019-03-03T03:16:08.587Z,8.70
2019-03-03T03:18:41.150Z,8.43
2019-03-03T03:21:22.451Z,9.03
2019-03-03T03:24:01.033Z,9.43
2019-03-03T03:26:49.855Z,8.87
2019-03-03T03:29:23.346Z,8.77
2019-03-03T03:31:55.879Z,8.60
2019-03-03T03:34:28.464Z,9.33
2019-03-03T03:37:01.175Z,9.07
2019-03-03T03:39:33.766Z,9.43
2019-03-03T03:42:12.310Z,9.83
2019-03-03T03:44:54.086Z,9.57
2019-03-03T03:47:35.856Z,9.50
2019-03-03T03:50:12.923Z,9.93
2019-03-03T03:53:00.662Z,10.67
2019-03-03T03:55:36.142Z,9.97
2019-03-03T03:58:14.769Z,9.53
2019-03-03T04:00:47.335Z,10.50
2019-03-03T04:03:23.134Z,10.83
2019-03-03T04:06:05.077Z,10.33
2019-03-03T04:08:53.832Z,10.70
2019-03-03T04:11:44.525Z,10.97
2019-03-03T04:14:35.585Z,10.43
2019-03-03T04:17:23.253Z,10.53
2019-03-03T04:20:04.673Z,10.97
2019-03-03T04:22:37.263Z,10.77
2019-03-03T04:25:18.756Z,11.43
2019-03-03T04:28:10.421Z,11.47
2019-03-03T04:30:48.742Z,12.37
2019-03-03T04:33:24.008Z,11.90
2019-03-03T04:36:14.871Z,12.77
2019-03-03T04:38:47.425Z,11.77
2019-03-03T04:41:19.984Z,12.83
2019-03-03T04:43:58.420Z,11.93
2019-03-03T04:46:33.928Z,12.83
2019-03-03T04:49:09.201Z,13.13
2019-03-03T04:51:44.450Z,13.43
2019-03-03T04:54:26.210Z,13.20
2019-03-03T04:56:58.750Z,12.03
2019-03-03T04:59:43.570Z,13.47
2019-03-03T05:02:16.112Z,13.47
2019-03-03T05:04:49.511Z,12.57
2019-03-03T05:07:28.275Z,13.07
2019-03-03T05:10:00.763Z,12.73
2019-03-03T05:12:48.242Z,13.43
2019-03-03T05:15:24.244Z,13.30
2019-03-03T05:18:02.515Z,13.37
2019-03-03T05:20:50.452Z,13.63
2019-03-03T05:23:21.350Z,14.13
2019-03-03T05:25:52.281Z,13.80
2019-03-03T05:28:23.183Z,13.63
2019-03-03T05:30:54.309Z,13.60
2019-03-03T05:33:26.895Z,14.90
2019-03-03T05:35:57.831Z,14.07
2019-03-03T05:38:28.738Z,15.83
2019-03-03T05:40:59.722Z,14.70
2019-03-03T05:43:30.623Z,13.97
2019-03-03T05:46:01.594Z,14.53
2019-03-03T05:48:32.502Z,15.13
2019-03-03T05:51:03.428Z,14.60
2019-03-03T05:53:34.325Z,12.80
2019-03-03T05:56:05.248Z,18.13
2019-03-03T05:58:36.140Z,18.30
2019-03-03T06:01:07.880Z,16.37
2019-03-03T06:03:38.780Z,15.77
2019-03-03T06:06:09.712Z,14.67
2019-03-03T06:08:40.613Z,15.27
2019-03-03T06:11:11.540Z,17.53
2019-03-03T06:13:42.436Z,15.57
2019-03-03T06:16:14.419Z,16.47
2019-03-03T06:18:45.320Z,15.67
2019-03-03T06:21:16.249Z,16.33
2019-03-03T06:23:47.161Z,16.27
2019-03-03T06:26:18.994Z,16.60
2019-03-03T06:28:49.902Z,14.60
2019-03-03T06:31:21.783Z,15.83
2019-03-03T06:33:53.579Z,15.60
2019-03-03T06:36:24.522Z,18.80
2019-03-03T06:38:55.437Z,18.57
2019-03-03T06:41:26.362Z,18.53
2019-03-03T06:43:57.269Z,17.47
2019-03-03T06:46:28.235Z,16.63
2019-03-03T06:48:59.143Z,17.70
2019-03-03T06:51:30.937Z,17.40
2019-03-03T06:54:01.849Z,18.20
2019-03-03T06:56:32.781Z,16.53
2019-03-03T06:59:03.752Z,17.33
2019-03-03T07:01:34.695Z,17.90
2019-03-03T07:04:05.606Z,18.83
2019-03-03T07:06:36.542Z,17.97
2019-03-03T07:09:07.537Z,18.13
2019-03-03T07:11:38.459Z,18.43
2019-03-03T07:14:09.353Z,18.10
2019-03-03T07:16:41.151Z,17.30
2019-03-03T07:19:12.054Z,17.60
2019-03-03T07:21:42.988Z,18.23
2019-03-03T07:24:13.898Z,18.30
2019-03-03T07:26:44.827Z,18.27
2019-03-03T07:29:15.805Z,18.20
2019-03-03T07:31:46.742Z,19.40
2019-03-03T07:34:18.552Z,20.10
2019-03-03T07:36:52.690Z,23.70
2019-03-03T07:39:23.593Z,20.07
2019-03-03T07:41:55.469Z,19.13
2019-03-03T07:44:26.379Z,17.67
2019-03-03T07:46:58.259Z,17.70
2019-03-03T07:49:29.163Z,18.60
2019-03-03T07:52:00.097Z,23.53
2019-03-03T07:54:31.028Z,18.30
2019-03-03T07:57:02.829Z,22.17
2019-03-03T07:59:33.736Z,18.37
2019-03-03T08:02:05.534Z,24.20
2019-03-03T08:04:36.440Z,18.10
2019-03-03T08:07:07.372Z,17.53
2019-03-03T08:09:38.301Z,20.87
2019-03-03T08:12:09.276Z,18.30
2019-03-03T08:14:40.179Z,20.27
2019-03-03T08:17:11.126Z,22.03
2019-03-03T08:19:42.117Z,20.23
2019-03-03T08:22:13.115Z,17.83
2019-03-03T08:24:44.016Z,17.27
2019-03-03T08:27:14.944Z,20.17
2019-03-03T08:29:45.856Z,16.63
2019-03-03T08:32:16.809Z,19.17
2019-03-03T08:34:49.288Z,20.90
2019-03-03T08:37:20.216Z,18.67
2019-03-03T08:39:51.121Z,21.60
2019-03-03T08:42:33.454Z,22.03
2019-03-03T08:45:23.227Z,21.20
2019-03-03T08:47:56.636Z,19.67
2019-03-03T08:50:33.452Z,21.03
2019-03-03T08:53:14.922Z,18.97
2019-03-03T08:56:04.318Z,23.07
2019-03-03T08:58:53.437Z,19.97
2019-03-03T09:01:26.006Z,24.07
2019-03-03T09:04:08.325Z,19.27
2019-03-03T09:06:40.873Z,19.83
2019-03-03T09:09:15.967Z,22.10
2019-03-03T09:11:48.517Z,19.33
2019-03-03T09:14:21.112Z,19.20
2019-03-03T09:17:05.528Z,30.47
2019-03-03T09:19:38.934Z,18.40
2019-03-03T09:22:11.486Z,19.50
2019-03-03T09:24:59.043Z,20.00
2019-03-03T09:27:34.334Z,34.87
2019-03-03T09:30:12.616Z,24.37
2019-03-03T09:33:00.124Z,22.13
2019-03-03T09:35:34.552Z,19.03
2019-03-03T09:38:07.334Z,19.73
2019-03-03T09:40:45.650Z,19.83
2019-03-03T09:43:21.184Z,18.63
2019-03-03T09:46:08.846Z,36.10
2019-03-03T09:48:56.189Z,34.30
2019-03-03T09:51:48.010Z,29.67
2019-03-03T09:54:23.728Z,31.43
2019-03-03T09:57:12.577Z,20.63
2019-03-03T09:59:45.148Z,28.23
2019-03-03T10:02:29.679Z,22.83
2019-03-03T10:05:05.141Z,26.20
2019-03-03T10:07:53.894Z,30.97
2019-03-03T10:10:26.448Z,23.47
2019-03-03T10:13:01.976Z,24.37
2019-03-03T10:15:43.528Z,33.23
2019-03-03T10:18:25.322Z,28.23
2019-03-03T10:21:13.077Z,21.83
2019-03-03T10:24:04.512Z,25.10
2019-03-03T10:26:37.071Z,20.10
2019-03-03T10:29:10.060Z,28.83
2019-03-03T10:31:45.601Z,36.70
2019-03-03T10:34:30.292Z,35.90
2019-03-03T10:37:19.086Z,35.60
2019-03-03T10:39:56.510Z,25.30
2019-03-03T10:42:31.769Z,33.93
2019-03-03T10:45:04.381Z,36.40
2019-03-03T10:47:43.145Z,29.07
2019-03-03T10:50:18.678Z,25.07
2019-03-03T10:52:57.205Z,32.03
2019-03-03T10:55:30.608Z,33.93
2019-03-03T10:58:12.478Z,38.63
2019-03-03T11:01:03.057Z,31.60
2019-03-03T11:03:35.642Z,30.57
2019-03-03T11:06:20.209Z,26.80
2019-03-03T11:09:01.847Z,24.80
2019-03-03T11:11:38.411Z,18.03
2019-03-03T11:14:17.481Z,21.93
2019-03-03T11:17:02.026Z,23.23
2019-03-03T11:19:46.676Z,18.20
2019-03-03T11:22:34.321Z,20.45
2019-03-03T11:25:12.097Z,19.43
2019-03-03T11:27:48.448Z,21.23
2019-03-03T11:30:23.713Z,23.23
2019-03-03T11:33:12.362Z,19.20
2019-03-03T11:35:45.046Z,22.33
2019-03-03T11:38:32.953Z,21.13
2019-03-03T11:41:13.009Z,21.73
2019-03-03T11:43:49.872Z,22.63
2019-03-03T11:46:22.472Z,23.20
2019-03-03T11:49:04.298Z,25.13
2019-03-03T11:51:45.592Z,31.63
2019-03-03T11:54:30.342Z,28.50
2019-03-03T11:57:02.887Z,27.20
2019-03-03T11:59:38.241Z,28.70
2019-03-03T12:02:22.813Z,22.97
2019-03-03T12:05:04.378Z,31.53
2019-03-03T12:07:48.883Z,26.23
2019-03-03T12:10:24.181Z,41.80
2019-03-03T12:12:59.697Z,34.17
2019-03-03T12:15:41.111Z,23.67
2019-03-03T12:18:13.654Z,21.73
2019-03-03T12:20:49.221Z,21.07
2019-03-03T12:23:24.488Z,17.80
2019-03-03T12:26:13.393Z,20.70
2019-03-03T12:28:58.205Z,18.03
2019-03-03T12:31:51.200Z,16.53
2019-03-03T12:34:23.759Z,17.43
2019-03-03T12:36:57.126Z,24.33
2019-03-03T12:39:40.070Z,21.23
2019-03-03T12:42:12.637Z,19.20
2019-03-03T12:44:48.104Z,18.87
2019-03-03T12:47:30.524Z,24.27
2019-03-03T12:50:11.981Z,35.43
2019-03-03T12:52:50.511Z,29.87
2019-03-03T12:55:23.046Z,30.83
2019-03-03T12:57:58.711Z,18.67
2019-03-03T13:00:46.500Z,30.33
2019-03-03T13:03:22.210Z,16.33
2019-03-03T13:05:54.727Z,20.03
2019-03-03T13:08:27.273Z,16.00
2019-03-03T13:11:05.906Z,14.05
2019-03-03T13:13:41.471Z,42.00
2019-03-03T13:16:30.454Z,26.23
2019-03-03T13:19:03.845Z,38.67
2019-03-03T13:21:39.339Z,24.05
2019-03-03T13:24:14.859Z,28.13
2019-03-03T13:27:02.668Z,34.50
2019-03-03T13:29:35.228Z,16.07
2019-03-03T13:32:10.774Z,12.03
2019-03-03T13:34:44.174Z,14.27
2019-03-03T13:37:22.662Z,10.53
2019-03-03T13:40:12.151Z,11.53
2019-03-03T13:42:47.603Z,10.73
2019-03-03T13:45:18.542Z,10.63
2019-03-03T13:47:49.433Z,11.87
2019-03-03T13:50:21.200Z,10.87
2019-03-03T13:52:52.118Z,14.60
2019-03-03T13:55:23.152Z,11.20
2019-03-03T13:57:54.046Z,10.20
2019-03-03T14:00:25.059Z,12.00
2019-03-03T14:02:55.964Z,15.77
2019-03-03T14:05:27.710Z,16.20
2019-03-03T14:07:58.603Z,17.33
2019-03-03T14:10:29.542Z,17.97
2019-03-03T14:13:00.438Z,16.57
2019-03-03T14:15:31.369Z,15.37
2019-03-03T14:18:02.268Z,13.93
2019-03-03T14:21:04.070Z,16.63
2019-03-03T14:23:35.076Z,15.67
2019-03-03T14:26:06.074Z,16.47
2019-03-03T14:28:37.034Z,17.30
2019-03-03T14:31:07.953Z,18.60
2019-03-03T14:33:38.867Z,18.93
2019-03-03T14:36:10.630Z,14.73
2019-03-03T14:38:41.593Z,17.30
2019-03-03T14:41:13.371Z,12.93
2019-03-03T14:43:44.338Z,13.67
2019-03-03T14:46:15.849Z,12.47
2019-03-03T14:48:46.766Z,12.57
2019-03-03T14:51:18.691Z,14.23
2019-03-03T14:53:49.687Z,12.97
2019-03-03T14:56:21.393Z,13.67
2019-03-03T14:58:52.299Z,13.20
2019-03-03T15:01:23.235Z,15.03
2019-03-03T15:03:54.161Z,14.80
2019-03-03T15:06:27.730Z,13.00
2019-03-03T15:08:58.719Z,13.73
2019-03-03T15:11:29.647Z,14.23
2019-03-03T15:14:00.972Z,14.07
2019-03-03T15:16:32.015Z,13.23
2019-03-03T15:19:02.982Z,13.13
2019-03-03T15:21:34.958Z,15.97
2019-03-03T15:24:05.934Z,17.73
2019-03-03T15:26:36.931Z,16.13
2019-03-03T15:29:07.919Z,13.90
2019-03-03T15:31:39.244Z,23.53
2019-03-03T15:34:10.140Z,38.33
2019-03-03T15:36:42.106Z,64.50
2019-03-03T15:39:13.011Z,32.37
2019-03-03T15:41:45.593Z,17.90
2019-03-03T15:44:16.497Z,15.43
2019-03-03T15:46:47.571Z,12.03
2019-03-03T15:49:18.481Z,13.00
2019-03-03T15:51:51.136Z,18.07
2019-03-03T15:54:22.038Z,13.60
2019-03-03T15:56:52.984Z,10.83
2019-03-03T15:59:23.877Z,9.70
2019-03-03T16:01:54.798Z,9.07
2019-03-03T16:04:25.704Z,11.13
2019-03-03T16:06:57.682Z,9.67
2019-03-03T16:09:28.579Z,12.37
2019-03-03T16:11:59.519Z,11.43
2019-03-03T16:14:30.819Z,10.90
2019-03-03T16:17:01.785Z,11.37
2019-03-03T16:19:32.687Z,9.63
2019-03-03T16:22:04.678Z,9.27
2019-03-03T16:24:35.517Z,10.40
2019-03-03T16:27:06.443Z,12.23
2019-03-03T16:29:37.347Z,9.20
2019-03-03T16:32:08.281Z,8.30
2019-03-03T16:34:39.198Z,10.88
2019-03-03T16:37:11.124Z,10.57
2019-03-03T16:39:42.020Z,10.17
2019-03-03T16:42:13.789Z,10.07
2019-03-03T16:44:44.692Z,8.30
2019-03-03T16:47:15.607Z,8.48
2019-03-03T16:49:47.937Z,9.17
2019-03-03T16:52:19.716Z,7.93
2019-03-03T16:54:51.328Z,8.37
2019-03-03T16:57:22.240Z,8.37
2019-03-03T16:59:53.214Z,9.60
2019-03-03T17:02:24.138Z,8.60
2019-03-03T17:04:55.024Z,9.63
2019-03-03T17:07:26.889Z,10.97
2019-03-03T17:09:57.782Z,37.43
2019-03-03T17:12:28.713Z,23.53
2019-03-03T17:14:59.613Z,19.13
2019-03-03T17:17:30.545Z,14.27
2019-03-03T17:20:01.496Z,11.87
2019-03-03T17:22:33.244Z,9.50
2019-03-03T17:25:05.878Z,9.20
2019-03-03T17:27:36.800Z,8.77
2019-03-03T17:30:10.936Z,7.83
2019-03-03T17:32:41.855Z,8.80
2019-03-03T17:35:14.271Z,8.80
2019-03-03T17:37:46.141Z,9.27
2019-03-03T17:40:21.297Z,10.93
2019-03-03T17:42:53.081Z,9.53
2019-03-03T17:45:24.982Z,9.20
2019-03-03T17:48:02.693Z,8.93
2019-03-03T17:50:36.847Z,8.00
2019-03-03T17:53:08.721Z,8.13
2019-03-03T17:55:39.637Z,9.77
2019-03-03T17:58:10.803Z,10.80
2019-03-03T18:00:43.819Z,9.63
2019-03-03T18:03:14.751Z,11.50
2019-03-03T18:05:45.661Z,14.47
2019-03-03T18:08:17.440Z,18.33
2019-03-03T18:10:48.413Z,16.77
2019-03-03T18:13:19.346Z,14.30
2019-03-03T18:15:50.253Z,14.60
2019-03-03T18:18:21.214Z,10.47
2019-03-03T18:20:52.118Z,8.60
2019-03-03T18:23:23.849Z,9.70
2019-03-03T18:25:54.769Z,12.10
2019-03-03T18:28:25.679Z,9.77
2019-03-03T18:30:56.576Z,10.83
2019-03-03T18:33:27.496Z,86.53
2019-03-03T18:35:58.460Z,54.63
2019-03-03T18:38:30.308Z,17.10
2019-03-03T18:41:01.218Z,15.40
2019-03-03T18:43:33.736Z,10.57
2019-03-03T18:46:05.818Z,14.40
2019-03-03T18:48:36.819Z,18.53
2019-03-03T18:51:07.716Z,20.07
2019-03-03T18:53:39.503Z,19.07
2019-03-03T18:56:10.412Z,20.40
2019-03-03T18:58:41.410Z,23.03
2019-03-03T19:01:12.318Z,14.93
2019-03-03T19:03:43.277Z,13.60
2019-03-03T19:06:14.169Z,14.97
2019-03-03T19:08:45.118Z,14.67
2019-03-03T19:11:16.031Z,12.90
2019-03-03T19:13:46.961Z,13.50
2019-03-03T19:16:17.885Z,14.33
2019-03-03T19:18:48.916Z,13.77
2019-03-03T19:21:19.817Z,14.23
2019-03-03T19:23:51.642Z,12.47
2019-03-03T19:26:22.608Z,13.17
2019-03-03T19:28:53.553Z,12.20
2019-03-03T19:31:24.461Z,13.00
2019-03-03T19:33:57.654Z,13.40
2019-03-03T19:36:28.578Z,13.60
2019-03-03T19:39:00.485Z,13.60
2019-03-03T19:41:31.398Z,15.07
2019-03-03T19:44:03.188Z,16.00
2019-03-03T19:46:34.174Z,23.13
2019-03-03T19:49:05.189Z,23.37
2019-03-03T19:51:36.122Z,19.47
2019-03-03T19:54:07.169Z,22.17
2019-03-03T19:56:38.099Z,22.73
2019-03-03T19:59:09.064Z,21.90
2019-03-03T20:01:40.117Z,20.00
2019-03-03T20:04:11.048Z,19.97
2019-03-03T20:06:41.981Z,17.33
2019-03-03T20:09:15.592Z,19.10
2019-03-03T20:11:47.872Z,20.50
2019-03-03T20:14:18.982Z,18.73
2019-03-03T20:16:50.530Z,19.77
2019-03-03T20:19:21.481Z,18.80
2019-03-03T20:21:52.407Z,18.67
2019-03-03T20:24:24.207Z,19.57
2019-03-03T20:26:55.121Z,19.80
2019-03-03T20:29:26.109Z,21.23
2019-03-03T20:31:57.023Z,21.07
2019-03-03T20:34:28.019Z,25.23
2019-03-03T20:36:58.945Z,19.47
2019-03-03T20:39:30.755Z,17.47
2019-03-03T20:42:01.694Z,18.13
2019-03-03T20:44:33.443Z,17.57
2019-03-03T20:47:04.357Z,18.00
2019-03-03T20:49:35.323Z,19.03
2019-03-03T20:52:06.856Z,19.00
2019-03-03T20:54:37.784Z,20.40
2019-03-03T20:57:13.599Z,19.07
2019-03-03T20:59:45.719Z,20.23
2019-03-03T21:02:16.683Z,18.30
2019-03-03T21:04:49.287Z,18.10
2019-03-03T21:07:23.148Z,16.40
2019-03-03T21:09:54.141Z,16.27
2019-03-03T21:12:25.143Z,16.13
2019-03-03T21:14:56.073Z,16.10
2019-03-03T21:17:27.019Z,15.33
2019-03-03T21:19:57.954Z,13.30
2019-03-03T21:22:28.898Z,12.73
2019-03-03T21:24:59.897Z,14.00
2019-03-03T21:27:31.799Z,13.83
2019-03-03T21:30:02.716Z,13.67
2019-03-03T21:32:33.679Z,14.43
2019-03-03T21:35:07.005Z,12.33
2019-03-03T21:37:38.047Z,14.47
2019-03-03T21:40:26.374Z,14.37
2019-03-03T21:42:58.321Z,15.90
2019-03-03T21:45:30.805Z,12.80
2019-03-03T21:48:01.771Z,11.87
2019-03-03T21:50:32.876Z,11.00
2019-03-03T21:53:05.499Z,9.83
2019-03-03T21:55:36.459Z,8.30
2019-03-03T21:58:08.913Z,6.07
2019-03-03T22:00:41.522Z,5.20
2019-03-03T22:03:12.473Z,4.30
2019-03-03T22:05:43.401Z,4.67
2019-03-03T22:08:14.327Z,5.10
2019-03-03T22:10:45.228Z,4.20
2019-03-03T22:13:17.027Z,5.27
2019-03-03T22:15:47.935Z,6.43
2019-03-03T22:18:18.873Z,6.27
2019-03-03T22:20:49.784Z,6.57
2019-03-03T22:23:20.767Z,7.03
2019-03-03T22:25:51.644Z,5.73
2019-03-03T22:28:23.492Z,5.87
2019-03-03T22:30:54.383Z,7.40
2019-03-03T22:33:25.299Z,8.27
2019-03-03T22:35:56.198Z,12.83
2019-03-03T22:38:27.132Z,13.23
2019-03-03T22:40:58.037Z,16.60
2019-03-03T22:43:29.845Z,15.17
2019-03-03T22:46:00.743Z,13.03
2019-03-03T22:48:31.687Z,12.53
2019-03-03T22:51:02.659Z,15.80
2019-03-03T22:53:33.605Z,13.60
2019-03-03T22:56:04.583Z,11.53
2019-03-03T22:58:35.554Z,14.50
2019-03-03T23:01:12.365Z,15.07
2019-03-03T23:03:46.210Z,18.47
2019-03-03T23:06:38.196Z,22.93
2019-03-03T23:09:14.875Z,21.33
2019-03-03T23:12:19.223Z,23.53
2019-03-03T23:15:00.057Z,20.70
2019-03-03T23:17:53.393Z,19.43
2019-03-03T23:20:29.899Z,17.50
2019-03-03T23:23:06.591Z,17.97
2019-03-03T23:25:53.651Z,18.63
2019-03-03T23:28:24.654Z,19.73
2019-03-03T23:30:55.590Z,20.57
2019-03-03T23:33:26.498Z,31.13
2019-03-03T23:35:57.432Z,28.17
2019-03-03T23:38:28.330Z,25.03
2019-03-03T23:40:59.260Z,22.07
2019-03-03T23:43:30.152Z,21.60
2019-03-03T23:46:03.868Z,21.53
2019-03-03T23:48:34.764Z,19.93
2019-03-03T23:51:05.691Z,19.03
2019-03-03T23:53:36.589Z,23.83
2019-03-03T23:56:07.515Z,21.37
2019-03-03T23:58:38.417Z,24.30
